CheckWX is a tool to help pilots better visualize weather data.  It is not intended as a substitute for an official pre-flight weather briefing.

12:42:32 UTC

KETH METAR
Wheaton Municipal Airport
Wheaton, Minnesota, USA
Current

6 mins ago

KETH 201237Z AUTO 28008KT 10SM CLR 07/03 A3018 RMK AO2
Observed
May-20 @ 12:37 UTC
Wind
  • 280° at 8 KTS
Visibility
10 SM
Flight Rules
VFR
Cloud Levels
  • Clear skies
Temperature
C / 45°F
Dewpoint
C / 37°F
Humidity
76%
Altimeter
30.18" Hg
Pressure
1022.02 hPa
Previous

32 mins ago

KETH 201211Z AUTO 29006KT 10SM CLR 06/03 A3016 RMK AO2
Observed
May-20 @ 12:11 UTC
Wind
  • 290° at 6 KTS
Visibility
10 SM
Flight Rules
VFR
Cloud Levels
  • Clear skies
Temperature
C / 43°F
Dewpoint
C / 37°F
Humidity
81%
Altimeter
30.16" Hg
Pressure
1021.32 hPa
Previous

49 mins ago

KETH 201154Z AUTO 27007KT 10SM CLR 06/03 A3016 RMK AO2
Observed
May-20 @ 11:54 UTC
Wind
  • 270° at 7 KTS
Visibility
10 SM
Flight Rules
VFR
Cloud Levels
  • Clear skies
Temperature
C / 43°F
Dewpoint
C / 37°F
Humidity
81%
Altimeter
30.16" Hg
Pressure
1021.32 hPa